createdAt,value
2018-03-26T18:31:51.896Z,15.40
2018-03-26T18:34:20.469Z,15.66
2018-03-26T18:36:49.805Z,14.63
2018-03-26T18:39:18.428Z,14.42
2018-03-26T18:41:47.033Z,12.83
2018-03-26T18:44:16.380Z,12.14
2018-03-26T18:46:45.001Z,13.11
2018-03-26T18:49:13.568Z,14.21
2018-03-26T18:51:42.145Z,13.64
2018-03-26T18:54:11.589Z,12.97
2018-03-26T18:56:40.957Z,12.70
2018-03-26T18:59:09.533Z,12.26
2018-03-26T19:01:38.309Z,12.58
2018-03-26T19:04:06.889Z,12.83
2018-03-26T19:06:35.458Z,13.12
2018-03-26T19:09:04.313Z,12.81
2018-03-26T19:11:33.717Z,11.05
2018-03-26T19:14:02.286Z,11.69
2018-03-26T19:16:30.910Z,10.80
2018-03-26T19:18:59.494Z,12.18
2018-03-26T19:21:28.072Z,10.59
2018-03-26T19:23:56.731Z,10.41
2018-03-26T19:26:25.297Z,9.54
2018-03-26T19:28:53.869Z,10.48
2018-03-26T19:31:23.470Z,9.90
2018-03-26T19:33:52.158Z,10.39
2018-03-26T19:36:20.768Z,11.57
2018-03-26T19:38:49.400Z,12.46
2018-03-26T19:41:18.046Z,12.64
2018-03-26T19:43:47.440Z,13.17
2018-03-26T19:46:16.210Z,15.00
2018-03-26T19:48:44.780Z,13.61
2018-03-26T19:51:13.379Z,14.27
2018-03-26T19:53:42.164Z,14.83
2018-03-26T19:56:10.752Z,14.32
2018-03-26T19:58:39.327Z,15.27
2018-03-26T20:01:07.954Z,13.53
2018-03-26T20:03:37.340Z,13.14
2018-03-26T20:06:05.928Z,14.16
2018-03-26T20:08:35.317Z,15.22
2018-03-26T20:11:03.950Z,14.98
2018-03-26T20:13:32.521Z,15.49
2018-03-26T20:16:01.257Z,13.76
2018-03-26T20:18:29.836Z,13.86
2018-03-26T20:20:58.408Z,14.43
2018-03-26T20:23:27.345Z,13.14
2018-03-26T20:25:57.430Z,14.43
2018-03-26T20:28:26.013Z,13.71
2018-03-26T20:30:54.785Z,15.35
2018-03-26T20:33:23.353Z,16.20
2018-03-26T20:35:51.932Z,15.06
2018-03-26T20:38:20.958Z,13.35
2018-03-26T20:40:49.513Z,13.83
2018-03-26T20:43:18.085Z,14.10
2018-03-26T20:45:46.710Z,14.97
2018-03-26T20:48:15.278Z,14.56
2018-03-26T20:50:43.844Z,14.30
2018-03-26T20:53:12.473Z,13.71
2018-03-26T20:55:41.045Z,15.33
2018-03-26T20:58:09.612Z,15.09
2018-03-26T21:00:38.415Z,15.13
2018-03-26T21:03:07.001Z,15.42
2018-03-26T21:05:35.568Z,15.41
2018-03-26T21:08:04.240Z,15.62
2018-03-26T21:10:33.544Z,15.47
2018-03-26T21:13:02.128Z,16.55
2018-03-26T21:15:30.896Z,16.09
2018-03-26T21:17:59.464Z,14.78
2018-03-26T21:20:28.801Z,15.98
2018-03-26T21:22:57.423Z,15.89
2018-03-26T21:25:25.996Z,14.64
2018-03-26T21:27:54.564Z,14.77
2018-03-26T21:30:23.188Z,13.06
2018-03-26T21:32:51.757Z,14.94
2018-03-26T21:35:20.328Z,12.28
2018-03-26T21:37:48.941Z,13.02
2018-03-26T21:40:17.517Z,14.86
2018-03-26T21:42:46.084Z,13.81
2018-03-26T21:45:14.801Z,13.80
2018-03-26T21:47:44.138Z,13.61
2018-03-26T21:50:12.748Z,13.22
2018-03-26T21:52:41.368Z,13.21
2018-03-26T21:55:09.934Z,13.11
2018-03-26T21:57:38.508Z,13.70
2018-03-26T22:00:21.214Z,12.66
2018-03-26T22:02:49.829Z,13.96
2018-03-26T22:05:19.926Z,11.28
2018-03-26T22:07:48.808Z,11.51
2018-03-26T22:10:17.384Z,11.42
2018-03-26T22:12:45.974Z,10.58
2018-03-26T22:15:14.693Z,10.33
2018-03-26T22:17:43.252Z,9.22
2018-03-26T22:20:11.834Z,9.90
2018-03-26T22:22:40.532Z,9.39
2018-03-26T22:25:09.144Z,11.24
2018-03-26T22:27:38.476Z,11.42
2018-03-26T22:30:07.497Z,11.58
2018-03-26T22:32:36.060Z,10.55
2018-03-26T22:35:04.637Z,10.63
2018-03-26T22:37:33.646Z,11.10
2018-03-26T22:40:02.294Z,11.96
2018-03-26T22:42:30.856Z,12.04
2018-03-26T22:45:00.236Z,12.48
2018-03-26T22:47:28.807Z,13.68
2018-03-26T22:49:57.368Z,12.95
2018-03-26T22:52:26.121Z,13.90
2018-03-26T22:54:55.452Z,13.47
2018-03-26T22:57:24.012Z,12.86
2018-03-26T22:59:52.642Z,13.31
2018-03-26T23:02:21.229Z,12.71
2018-03-26T23:04:49.793Z,11.98
2018-03-26T23:07:18.400Z,13.34
2018-03-26T23:09:46.984Z,12.47
2018-03-26T23:12:16.320Z,13.36
2018-03-26T23:14:45.692Z,14.00
2018-03-26T23:17:14.272Z,13.87
2018-03-26T23:19:42.862Z,14.14
2018-03-26T23:22:11.581Z,12.63
2018-03-26T23:24:40.908Z,13.18
2018-03-26T23:27:09.480Z,12.29
2018-03-26T23:29:38.396Z,13.18
2018-03-26T23:32:06.952Z,13.88
2018-03-26T23:34:35.513Z,12.14
2018-03-26T23:37:05.185Z,12.07
2018-03-26T23:39:33.748Z,10.53
2018-03-26T23:42:02.306Z,9.97
2018-03-26T23:44:31.745Z,9.24
2018-03-26T23:47:00.304Z,8.66
2018-03-26T23:49:28.862Z,8.24
2018-03-26T23:51:58.341Z,8.55
2018-03-26T23:54:27.710Z,9.97
2018-03-26T23:56:56.280Z,9.88
2018-03-26T23:59:25.165Z,9.90
